Time;durP1;ratioP1;P1;durP2;ratioP2;P2;SDS_P1;SDS_P2;PMS_P1;PMS_P2;Temp;Humidity;BMP_temperature;BMP_pressure;BME280_temperature;BME280_humidity;BME280_pressure;Samples;Min_cycle;Max_cycle;Signal;HPM_P1;HPM_P2
2022/04/25 00:01:05;;;;;;;15.77;7.43;;;8.40;99.90;;;;;;5070257;28;20470;-49
2022/04/25 00:03:30;;;;;;;14.43;7.35;;;8.40;99.90;;;;;;5070112;28;20040;-46
2022/04/25 00:05:56;;;;;;;16.25;7.75;;;8.40;99.90;;;;;;5070214;28;20041;-47
2022/04/25 00:08:22;;;;;;;13.57;7.22;;;8.40;99.90;;;;;;5051581;28;20198;-48
2022/04/25 00:10:47;;;;;;;16.38;8.07;;;8.30;99.90;;;;;;5070530;28;20444;-49
2022/04/25 00:13:14;;;;;;;14.80;7.75;;;8.40;99.90;;;;;;5070270;28;20043;-50
2022/04/25 00:15:41;;;;;;;15.80;8.30;;;8.40;99.90;;;;;;5070341;28;20128;-46
2022/04/25 00:18:07;;;;;;;14.52;7.93;;;8.40;99.90;;;;;;5070222;28;20036;-45
2022/04/25 00:20:32;;;;;;;12.35;7.70;;;8.30;99.90;;;;;;5070441;28;20034;-47
2022/04/25 00:23:00;;;;;;;14.90;8.20;;;8.30;99.90;;;;;;5070346;28;20040;-49
2022/04/25 00:25:28;;;;;;;16.40;8.50;;;8.20;99.90;;;;;;5074429;28;20407;-47
2022/04/25 00:27:54;;;;;;;15.15;8.68;;;8.20;99.90;;;;;;5074298;28;20064;-46
2022/04/25 00:30:20;;;;;;;17.52;8.50;;;8.20;99.90;;;;;;5074337;28;20059;-46
2022/04/25 00:32:46;;;;;;;16.63;8.73;;;8.10;99.90;;;;;;5073860;28;20540;-46
2022/04/25 00:35:11;;;;;;;14.95;8.45;;;8.20;99.90;;;;;;5073862;28;20158;-48
2022/04/25 00:37:37;;;;;;;14.90;8.63;;;8.10;99.90;;;;;;5073553;28;20043;-46
2022/04/25 00:40:03;;;;;;;14.70;8.25;;;7.90;99.90;;;;;;5055544;28;20051;-46
2022/04/25 00:42:29;;;;;;;17.30;9.57;;;7.90;99.90;;;;;;5075953;28;20036;-48
2022/04/25 00:44:57;;;;;;;13.85;8.07;;;7.90;99.90;;;;;;5073525;28;20036;-49
2022/04/25 00:47:23;;;;;;;16.38;8.60;;;7.90;99.90;;;;;;5073828;28;20040;-46
2022/04/25 00:49:49;;;;;;;15.73;8.85;;;7.80;99.90;;;;;;5073865;28;20481;-47
2022/04/25 00:52:14;;;;;;;14.55;8.98;;;7.80;99.90;;;;;;5060079;28;20056;-47
2022/04/25 00:54:41;;;;;;;13.73;8.98;;;7.70;99.90;;;;;;5073871;28;20098;-46
2022/04/25 00:57:07;;;;;;;15.52;9.30;;;7.80;99.90;;;;;;5073311;28;20048;-47
2022/04/25 00:59:33;;;;;;;16.98;9.13;;;7.80;99.90;;;;;;5073409;28;20044;-47
2022/04/25 01:01:58;;;;;;;20.48;10.10;;;7.80;99.90;;;;;;5073459;28;20044;-49
2022/04/25 01:04:24;;;;;;;18.13;10.15;;;7.70;99.90;;;;;;5092466;28;20399;-47
2022/04/25 01:06:50;;;;;;;16.17;9.70;;;7.80;99.90;;;;;;5093474;28;20051;-47
2022/04/25 01:09:15;;;;;;;19.05;10.23;;;7.80;99.90;;;;;;5092969;28;20036;-46
2022/04/25 01:11:41;;;;;;;19.85;10.25;;;7.80;99.90;;;;;;5093463;28;20047;-48
2022/04/25 01:14:18;;;;;;;19.40;9.75;;;7.90;99.90;;;;;;5093201;28;20032;-47
2022/04/25 01:16:45;;;;;;;18.00;10.23;;;7.90;99.90;;;;;;5093789;28;20040;-49
2022/04/25 01:19:11;;;;;;;16.50;10.73;;;7.90;99.90;;;;;;5093154;28;20040;-46
2022/04/25 01:21:50;;;;;;;20.38;10.75;;;7.90;99.90;;;;;;5093443;28;20036;-47
2022/04/25 01:27:15;;;;;;;20.70;11.20;;;7.90;99.90;;;;;;5093236;28;20097;-48
2022/04/25 01:29:45;;;;;;;20.48;11.07;;;7.90;99.90;;;;;;5092892;28;20145;-48
2022/04/25 01:32:11;;;;;;;20.90;10.65;;;7.80;99.90;;;;;;5093166;28;20054;-47
2022/04/25 01:34:37;;;;;;;20.48;10.80;;;7.90;99.90;;;;;;5074792;28;20025;-47
2022/04/25 01:37:15;;;;;;;21.00;11.25;;;7.80;99.90;;;;;;5072170;28;20045;-46
2022/04/25 01:39:49;;;;;;;21.90;10.82;;;7.80;99.90;;;;;;5091809;28;20154;-45
2022/04/25 01:42:15;;;;;;;19.45;10.73;;;7.80;99.90;;;;;;5093129;28;20112;-46
2022/04/25 01:44:42;;;;;;;21.40;11.43;;;7.80;99.90;;;;;;5093065;28;20127;-45
2022/04/25 01:47:08;;;;;;;22.83;11.80;;;7.80;99.90;;;;;;5093039;28;20093;-46
2022/04/25 01:49:35;;;;;;;23.38;11.13;;;7.80;99.90;;;;;;5092514;28;20032;-47
2022/04/25 01:52:14;;;;;;;22.92;11.77;;;7.80;99.90;;;;;;5092680;28;20039;-46
2022/04/25 01:54:40;;;;;;;19.35;11.23;;;7.80;99.90;;;;;;5092620;28;20475;-45
2022/04/25 01:57:06;;;;;;;20.73;11.77;;;7.90;99.90;;;;;;5092896;28;20109;-46
2022/04/25 01:59:32;;;;;;;22.50;11.75;;;7.90;99.90;;;;;;5092749;28;20479;-46
2022/04/25 02:02:01;;;;;;;26.08;12.02;;;7.90;99.90;;;;;;5092652;28;20071;-46
2022/04/25 02:04:27;;;;;;;18.33;12.38;;;7.80;99.90;;;;;;5091898;28;20036;-46
2022/04/25 02:06:53;;;;;;;22.23;12.10;;;7.90;99.90;;;;;;5092516;28;20402;-45
2022/04/25 02:09:20;;;;;;;26.38;12.40;;;7.70;99.90;;;;;;5092130;28;20097;-47
2022/04/25 02:11:46;;;;;;;23.05;12.70;;;7.80;99.90;;;;;;5092503;28;20047;-46
2022/04/25 02:14:12;;;;;;;19.70;12.88;;;7.80;99.90;;;;;;5092181;28;20175;-47
2022/04/25 02:16:38;;;;;;;26.05;12.57;;;7.90;99.90;;;;;;5092349;28;20122;-47
2022/04/25 02:19:04;;;;;;;22.25;13.15;;;7.80;99.90;;;;;;5092183;28;20036;-45
2022/04/25 02:21:30;;;;;;;25.98;13.95;;;7.90;99.90;;;;;;5092224;28;20044;-47
2022/04/25 02:23:56;;;;;;;23.55;13.35;;;8.00;99.90;;;;;;5091982;28;20032;-50
2022/04/25 02:26:22;;;;;;;22.10;13.65;;;7.90;99.90;;;;;;5072130;28;20041;-46
2022/04/25 02:28:48;;;;;;;26.38;13.95;;;7.90;99.90;;;;;;5037291;28;20051;-50
2022/04/25 02:31:14;;;;;;;22.35;13.38;;;7.90;99.90;;;;;;5071979;28;20387;-46
2022/04/25 02:33:41;;;;;;;23.38;13.50;;;7.90;99.90;;;;;;5071787;28;20714;-47
2022/04/25 02:36:08;;;;;;;25.52;14.07;;;7.90;99.90;;;;;;5071187;28;20105;-45
2022/04/25 02:38:35;;;;;;;23.35;13.60;;;8.00;99.90;;;;;;5070903;28;20053;-45
2022/04/25 02:41:04;;;;;;;20.80;13.18;;;7.80;99.90;;;;;;5071238;28;20037;-48
2022/04/25 02:43:35;;;;;;;19.50;13.90;;;7.90;99.90;;;;;;5071717;28;20040;-47
2022/04/25 02:46:02;;;;;;;23.42;13.95;;;7.90;99.90;;;;;;5090582;28;20040;-46
2022/04/25 02:48:28;;;;;;;26.80;15.05;;;8.00;99.90;;;;;;5091804;28;20071;-46
2022/04/25 02:50:54;;;;;;;23.80;14.85;;;8.00;99.90;;;;;;5091220;28;20044;-49
2022/04/25 02:53:19;;;;;;;23.38;15.05;;;8.00;99.90;;;;;;5091563;28;20055;-49
2022/04/25 02:55:45;;;;;;;29.60;15.77;;;7.90;99.90;;;;;;5091549;28;20032;-46
2022/04/25 02:58:11;;;;;;;25.25;17.08;;;7.90;99.90;;;;;;5091444;28;20047;-49
2022/04/25 03:00:37;;;;;;;27.08;16.48;;;7.90;99.90;;;;;;5091263;28;20040;-49
2022/04/25 03:03:03;;;;;;;25.17;16.40;;;8.00;99.90;;;;;;5091476;28;20085;-46
2022/04/25 03:05:29;;;;;;;27.33;17.40;;;8.00;99.90;;;;;;5091486;28;20036;-46
2022/04/25 03:07:54;;;;;;;30.83;18.05;;;7.90;99.90;;;;;;5090907;28;20518;-46
2022/04/25 03:10:20;;;;;;;26.90;17.80;;;8.00;99.90;;;;;;5091367;28;20449;-47
2022/04/25 03:12:46;;;;;;;28.27;17.85;;;8.00;99.90;;;;;;5091455;28;20482;-48
2022/04/25 03:15:11;;;;;;;30.30;18.05;;;8.00;99.90;;;;;;5091160;28;20040;-46
2022/04/25 03:17:38;;;;;;;30.42;18.20;;;8.00;99.90;;;;;;5091252;28;20028;-46
2022/04/25 03:20:05;;;;;;;30.90;18.13;;;7.90;99.90;;;;;;5091174;28;20031;-49
2022/04/25 03:22:31;;;;;;;32.25;17.67;;;7.90;99.90;;;;;;5091142;28;20075;-47
2022/04/25 03:24:56;;;;;;;30.77;16.63;;;7.90;99.90;;;;;;5091026;28;20529;-45
2022/04/25 03:27:22;;;;;;;29.67;16.77;;;7.80;99.90;;;;;;5091056;28;20127;-45
2022/04/25 03:29:48;;;;;;;26.15;17.80;;;7.80;99.90;;;;;;5072643;28;20498;-44
2022/04/25 03:32:14;;;;;;;25.60;17.60;;;7.90;99.90;;;;;;5072760;28;20051;-48
2022/04/25 03:34:41;;;;;;;31.00;17.25;;;7.80;99.90;;;;;;5091103;28;20054;-47
2022/04/25 03:37:10;;;;;;;27.20;17.27;;;7.90;99.90;;;;;;5070565;28;20048;-47
2022/04/25 03:39:35;;;;;;;27.25;16.90;;;7.80;99.90;;;;;;5070652;28;20087;-48
2022/04/25 03:42:01;;;;;;;30.65;17.80;;;7.80;99.90;;;;;;5070565;28;20401;-47
2022/04/25 03:44:27;;;;;;;33.63;18.88;;;8.00;99.90;;;;;;5070387;28;20102;-47
2022/04/25 03:46:53;;;;;;;26.58;17.50;;;8.00;99.90;;;;;;5070519;28;20487;-48
2022/04/25 03:49:19;;;;;;;32.75;17.45;;;7.90;99.90;;;;;;5052743;28;20048;-46
2022/04/25 03:51:44;;;;;;;25.60;16.95;;;8.00;99.90;;;;;;5070473;28;20068;-47
2022/04/25 03:54:10;;;;;;;27.10;17.75;;;7.90;99.90;;;;;;5070609;28;20494;-49
2022/04/25 03:59:20;;;;;;;25.27;16.45;;;7.90;99.90;;;;;;5069915;28;20043;-46
2022/04/25 04:01:45;;;;;;;28.60;17.15;;;7.90;99.90;;;;;;5070663;28;20036;-47
2022/04/25 04:04:11;;;;;;;31.15;17.42;;;7.90;99.90;;;;;;5070259;28;20041;-49
2022/04/25 04:06:37;;;;;;;26.80;16.73;;;7.90;99.90;;;;;;5089153;28;20051;-47
2022/04/25 04:09:44;;;;;;;25.60;16.77;;;7.90;99.90;;;;;;5090245;28;20043;-49
2022/04/25 04:11:49;;;;;;;28.33;16.73;;;7.80;99.90;;;;;;5090283;28;20055;-48
2022/04/25 04:14:15;;;;;;;26.35;17.10;;;7.90;99.90;;;;;;5090249;28;20040;-48
2022/04/25 04:16:42;;;;;;;29.23;17.08;;;7.90;99.90;;;;;;5090902;28;20131;-48
2022/04/25 04:19:08;;;;;;;30.15;16.20;;;7.80;99.90;;;;;;5071611;28;20036;-47
2022/04/25 04:21:34;;;;;;;26.20;16.45;;;7.80;99.90;;;;;;5090422;28;20036;-47
2022/04/25 04:24:01;;;;;;;30.30;15.68;;;7.70;99.90;;;;;;5090384;28;20066;-45
2022/04/25 04:26:28;;;;;;;28.63;15.90;;;7.90;99.90;;;;;;5090585;28;20044;-45
2022/04/25 04:28:56;;;;;;;26.05;15.32;;;7.80;99.90;;;;;;5090253;28;20063;-47
2022/04/25 04:31:22;;;;;;;25.73;15.75;;;7.80;99.90;;;;;;5072025;28;20044;-49
2022/04/25 04:33:47;;;;;;;26.95;15.75;;;7.80;99.90;;;;;;5090302;28;20043;-47
2022/04/25 04:36:19;;;;;;;22.15;14.82;;;7.70;99.90;;;;;;5090258;28;20089;-50
2022/04/25 04:38:45;;;;;;;23.42;15.45;;;7.80;99.90;;;;;;5082183;28;20059;-49
2022/04/25 04:41:12;;;;;;;26.27;15.43;;;7.70;99.90;;;;;;5070103;28;20056;-47
2022/04/25 04:43:38;;;;;;;25.67;14.57;;;7.70;99.90;;;;;;5088882;28;20039;-49
2022/04/25 04:46:04;;;;;;;26.38;15.52;;;7.80;99.90;;;;;;5090167;28;20070;-45
2022/04/25 04:48:29;;;;;;;26.88;15.48;;;7.80;99.90;;;;;;5090468;28;20040;-47
2022/04/25 04:50:56;;;;;;;26.33;14.82;;;7.80;99.90;;;;;;5090449;28;20485;-47
2022/04/25 04:53:25;;;;;;;22.85;15.57;;;7.80;99.90;;;;;;5090041;28;20040;-48
2022/04/25 04:55:51;;;;;;;26.75;15.45;;;7.90;99.90;;;;;;5089825;28;20044;-47
2022/04/25 04:58:20;;;;;;;24.58;14.88;;;7.90;99.90;;;;;;5090267;28;20405;-49
2022/04/25 05:00:47;;;;;;;26.85;14.75;;;7.80;99.90;;;;;;5090318;28;20047;-48
2022/04/25 05:03:16;;;;;;;22.85;15.38;;;7.80;99.90;;;;;;5090046;28;20506;-46
2022/04/25 05:05:43;;;;;;;23.38;15.23;;;7.80;99.90;;;;;;5089830;28;20042;-48
2022/04/25 05:08:09;;;;;;;21.50;13.60;;;7.80;99.90;;;;;;5089487;28;20036;-48
2022/04/25 05:10:34;;;;;;;22.33;14.05;;;7.80;99.90;;;;;;5072943;28;20043;-46
2022/04/25 05:13:00;;;;;;;22.50;14.63;;;7.80;99.90;;;;;;5093709;28;20458;-47
2022/04/25 05:15:26;;;;;;;27.50;14.63;;;7.90;99.90;;;;;;5064543;28;20381;-48
2022/04/25 05:17:55;;;;;;;23.38;14.77;;;7.90;99.90;;;;;;5073231;28;20040;-47
2022/04/25 05:20:22;;;;;;;24.67;14.75;;;7.90;99.90;;;;;;5073781;28;20089;-50
2022/04/25 05:22:49;;;;;;;25.88;14.73;;;7.90;99.90;;;;;;5092227;28;20391;-50
2022/04/25 05:25:18;;;;;;;25.38;14.02;;;7.90;99.90;;;;;;5093260;28;20059;-48
2022/04/25 05:27:45;;;;;;;27.60;14.75;;;7.90;99.90;;;;;;5093261;28;20043;-47
2022/04/25 05:30:13;;;;;;;22.17;14.52;;;7.90;99.90;;;;;;5075493;28;20475;-51
2022/04/25 05:32:47;;;;;;;27.65;14.70;;;8.00;99.90;;;;;;5093395;28;20123;-52
2022/04/25 05:35:17;;;;;;;23.50;14.60;;;8.00;99.90;;;;;;5093290;28;20054;-48
2022/04/25 05:37:44;;;;;;;27.02;15.05;;;7.90;99.90;;;;;;5092782;28;20613;-48
2022/04/25 05:40:12;;;;;;;26.75;15.48;;;7.90;99.90;;;;;;5074530;28;20082;-49
2022/04/25 05:42:40;;;;;;;26.02;14.93;;;8.00;99.90;;;;;;5093104;28;20036;-49
2022/04/25 05:45:06;;;;;;;25.98;15.68;;;7.90;99.90;;;;;;5092668;28;20547;-49
2022/04/25 05:47:35;;;;;;;26.13;15.23;;;7.90;99.90;;;;;;5074823;28;20071;-48
2022/04/25 05:52:48;;;;;;;25.05;15.05;;;7.90;99.90;;;;;;5092816;28;20047;-50
2022/04/25 05:55:14;;;;;;;22.75;14.48;;;8.10;99.90;;;;;;5074466;28;20044;-48
2022/04/25 05:57:40;;;;;;;24.73;14.32;;;8.00;99.90;;;;;;5092749;28;20487;-47
2022/04/25 06:00:09;;;;;;;27.40;15.07;;;8.00;99.90;;;;;;5092699;28;20040;-49
2022/04/25 06:02:42;;;;;;;22.92;15.43;;;8.00;99.90;;;;;;5092473;28;20055;-48
2022/04/25 06:05:11;;;;;;;24.85;14.95;;;8.00;99.90;;;;;;5092524;28;20044;-48
2022/04/25 06:07:41;;;;;;;22.02;14.57;;;8.10;99.90;;;;;;5092161;28;20051;-51
2022/04/25 06:10:08;;;;;;;27.13;14.23;;;8.20;99.90;;;;;;5092462;28;20040;-49
2022/04/25 06:12:39;;;;;;;24.98;14.85;;;8.20;99.90;;;;;;5092512;28;20036;-48
2022/04/25 06:15:05;;;;;;;23.25;13.77;;;8.20;99.90;;;;;;5092158;28;20462;-50
2022/04/25 06:17:31;;;;;;;23.98;14.57;;;8.20;99.90;;;;;;5092131;28;20036;-49
2022/04/25 06:19:57;;;;;;;24.15;14.77;;;8.30;99.90;;;;;;5092121;28;20086;-48
2022/04/25 06:22:22;;;;;;;24.40;13.82;;;8.40;99.90;;;;;;5092008;28;20036;-49
2022/04/25 06:24:48;;;;;;;20.70;13.02;;;8.30;99.90;;;;;;5091886;28;20039;-46
2022/04/25 06:27:14;;;;;;;21.80;13.38;;;8.20;99.90;;;;;;5091924;28;20605;-46
2022/04/25 06:29:42;;;;;;;22.30;12.70;;;8.30;99.90;;;;;;5092244;28;20039;-47
2022/04/25 06:32:08;;;;;;;22.73;13.27;;;8.30;99.90;;;;;;5073804;28;20028;-48
2022/04/25 06:34:34;;;;;;;24.10;13.30;;;8.30;99.90;;;;;;5091935;28;20040;-46
2022/04/25 06:37:00;;;;;;;23.40;12.32;;;8.40;99.90;;;;;;5037367;28;20486;-47
2022/04/25 06:39:26;;;;;;;21.83;12.40;;;8.40;99.90;;;;;;5071269;28;20049;-50
2022/04/25 06:41:52;;;;;;;20.48;12.70;;;8.40;99.90;;;;;;5071821;28;20043;-50
2022/04/25 06:44:17;;;;;;;21.17;12.15;;;8.40;99.90;;;;;;5071225;28;20498;-49
2022/04/25 06:46:43;;;;;;;20.08;12.65;;;8.40;99.90;;;;;;5071715;28;20082;-48
2022/04/25 06:49:23;;;;;;;22.63;12.88;;;8.40;99.90;;;;;;5071490;28;20055;-49
2022/04/25 06:51:54;;;;;;;20.30;12.38;;;8.40;99.90;;;;;;5091267;28;20479;-48
2022/04/25 06:54:20;;;;;;;20.33;12.68;;;8.30;99.90;;;;;;5091377;28;20109;-49
2022/04/25 06:56:46;;;;;;;24.67;13.15;;;8.40;99.90;;;;;;5091470;28;20043;-50
2022/04/25 06:59:12;;;;;;;20.00;13.63;;;8.50;99.90;;;;;;5091297;28;20105;-49
2022/04/25 07:01:42;;;;;;;18.90;11.63;;;8.50;99.90;;;;;;5073345;28;20032;-48
2022/04/25 07:04:08;;;;;;;19.95;12.85;;;8.60;99.90;;;;;;5091655;28;20036;-47
2022/04/25 07:06:34;;;;;;;21.17;12.75;;;8.60;99.90;;;;;;5091107;28;20047;-47
2022/04/25 07:09:00;;;;;;;23.48;13.70;;;8.70;99.90;;;;;;5091099;28;20043;-46
2022/04/25 07:11:26;;;;;;;22.88;13.32;;;8.50;99.90;;;;;;5091525;28;20491;-46
2022/04/25 07:13:52;;;;;;;21.48;13.45;;;8.50;99.90;;;;;;5071079;28;20039;-48
2022/04/25 07:16:17;;;;;;;22.15;13.38;;;8.50;99.90;;;;;;5071083;28;20044;-50
2022/04/25 07:18:43;;;;;;;21.70;13.80;;;8.60;99.90;;;;;;5071091;28;20492;-49
2022/04/25 07:29:24;;;;;;;21.33;13.75;;;8.80;99.90;;;;;;5090511;28;20113;-47
2022/04/25 07:31:53;;;;;;;22.92;13.70;;;8.90;99.90;;;;;;5072780;28;20115;-48
2022/04/25 07:34:20;;;;;;;23.88;14.23;;;8.80;99.90;;;;;;5086205;28;20399;-46
2022/04/25 07:36:53;;;;;;;22.48;13.23;;;8.90;99.90;;;;;;5078333;28;20115;-47
2022/04/25 07:39:22;;;;;;;20.73;13.90;;;8.90;99.90;;;;;;5071592;28;20068;-46
2022/04/25 07:41:49;;;;;;;25.27;14.23;;;8.70;99.90;;;;;;5074321;28;20037;-48
2022/04/25 07:44:15;;;;;;;24.10;13.90;;;8.80;99.90;;;;;;5047029;28;20498;-48
2022/04/25 07:46:41;;;;;;;23.15;15.30;;;8.80;99.90;;;;;;5065267;28;20043;-47
2022/04/25 07:49:10;;;;;;;22.58;14.13;;;8.80;99.90;;;;;;5064102;28;20471;-47
2022/04/25 07:51:39;;;;;;;23.35;13.70;;;8.60;99.90;;;;;;5065303;28;20048;-49
2022/04/25 07:54:05;;;;;;;22.25;13.98;;;8.70;99.90;;;;;;5056669;28;20071;-47
2022/04/25 07:56:32;;;;;;;22.50;13.70;;;8.80;99.90;;;;;;5066676;28;20099;-48
2022/04/25 07:59:00;;;;;;;20.55;13.20;;;8.80;99.90;;;;;;5065536;28;20036;-47
2022/04/25 08:01:27;;;;;;;23.25;13.48;;;8.80;99.90;;;;;;5065352;28;20032;-49
2022/04/25 08:03:53;;;;;;;22.90;13.30;;;8.80;99.90;;;;;;5067072;28;20033;-50
2022/04/25 08:06:20;;;;;;;23.60;13.88;;;8.80;99.90;;;;;;5066132;28;20044;-50
2022/04/25 08:08:50;;;;;;;21.23;13.18;;;8.80;99.90;;;;;;5064907;28;20033;-49
2022/04/25 08:11:16;;;;;;;24.80;14.07;;;8.70;99.90;;;;;;5063737;28;20792;-50
2022/04/25 08:19:13;;;;;;;18.33;12.48;;;8.80;99.90;;;;;;5066150;28;20043;-49
2022/04/25 08:21:40;;;;;;;19.58;12.65;;;8.80;99.90;;;;;;5063973;28;20436;-50
2022/04/25 08:24:05;;;;;;;20.38;13.73;;;8.90;99.90;;;;;;5047279;28;20040;-48
2022/04/25 08:26:31;;;;;;;23.40;13.68;;;9.00;99.90;;;;;;5064140;28;20385;-48
2022/04/25 08:28:59;;;;;;;22.23;12.48;;;9.00;99.90;;;;;;5065351;28;20490;-50
2022/04/25 08:31:28;;;;;;;20.33;12.30;;;9.00;99.90;;;;;;5066450;28;20115;-50
2022/04/25 08:33:55;;;;;;;18.20;11.48;;;9.10;99.90;;;;;;5063637;28;20033;-50
2022/04/25 08:36:22;;;;;;;20.65;12.02;;;9.10;99.90;;;;;;5065108;28;20045;-50
2022/04/25 08:38:48;;;;;;;20.13;12.75;;;9.00;99.90;;;;;;5063864;28;20060;-49
2022/04/25 08:41:21;;;;;;;18.92;12.07;;;9.00;99.90;;;;;;5067696;28;20480;-46
2022/04/25 08:43:52;;;;;;;20.52;12.43;;;8.90;99.90;;;;;;5066820;28;20028;-48
2022/04/25 08:46:21;;;;;;;23.02;12.82;;;8.80;99.90;;;;;;5067609;28;20041;-46
2022/04/25 08:48:47;;;;;;;20.73;12.63;;;8.90;99.90;;;;;;5056069;28;20040;-47
2022/04/25 08:51:14;;;;;;;21.13;12.38;;;8.70;99.90;;;;;;5068008;28;20049;-46
2022/04/25 08:53:41;;;;;;;19.98;13.95;;;8.50;99.90;;;;;;5068052;28;20040;-49
2022/04/25 08:56:07;;;;;;;20.27;13.40;;;8.70;99.90;;;;;;5055489;28;20040;-47
2022/04/25 08:58:36;;;;;;;23.90;13.50;;;8.60;99.90;;;;;;5067893;28;20029;-47
2022/04/25 09:01:02;;;;;;;25.40;13.32;;;8.60;99.90;;;;;;5068093;28;20070;-47
2022/04/25 09:03:28;;;;;;;21.10;12.93;;;8.50;99.90;;;;;;5068011;28;20040;-51
2022/04/25 09:05:55;;;;;;;24.83;14.27;;;8.50;99.90;;;;;;5066613;28;20051;-47
2022/04/25 09:08:21;;;;;;;22.67;13.57;;;8.60;99.90;;;;;;5048610;28;20040;-50
2022/04/25 09:10:48;;;;;;;24.42;14.45;;;8.60;99.90;;;;;;5069971;28;20036;-48
2022/04/25 09:13:14;;;;;;;20.45;13.32;;;8.70;99.90;;;;;;5068262;28;20044;-47
2022/04/25 09:15:40;;;;;;;20.30;13.35;;;8.70;99.90;;;;;;5067998;28;20725;-47
2022/04/25 09:18:06;;;;;;;21.88;11.80;;;8.50;99.90;;;;;;5066227;28;20040;-48
2022/04/25 09:20:32;;;;;;;19.70;13.07;;;8.50;99.90;;;;;;5068089;28;20502;-51
2022/04/25 09:22:58;;;;;;;20.40;12.95;;;8.40;99.90;;;;;;5069014;28;20116;-49
2022/04/25 09:25:24;;;;;;;18.77;11.82;;;8.50;99.90;;;;;;5067586;28;20047;-50
2022/04/25 09:28:12;;;;;;;19.55;11.70;;;8.40;99.90;;;;;;5068176;28;20033;-50
2022/04/25 09:30:38;;;;;;;18.48;11.95;;;8.50;99.90;;;;;;5064939;28;23258;-47
2022/04/25 09:33:20;;;;;;;19.38;12.85;;;8.40;99.90;;;;;;5065292;28;20079;-49
2022/04/25 09:35:56;;;;;;;24.60;14.00;;;8.40;99.90;;;;;;5066645;28;20070;-47
2022/04/25 09:38:33;;;;;;;19.65;12.27;;;8.50;99.90;;;;;;5065448;28;20048;-46
2022/04/25 09:40:59;;;;;;;22.38;13.07;;;8.50;99.90;;;;;;5066120;28;20060;-46
2022/04/25 09:43:33;;;;;;;20.45;13.10;;;8.40;99.90;;;;;;5066860;28;20037;-48
2022/04/25 09:46:00;;;;;;;19.73;13.27;;;8.60;99.90;;;;;;5065778;28;20033;-49
2022/04/25 09:48:26;;;;;;;20.27;13.70;;;8.50;99.90;;;;;;5066689;28;20043;-47
2022/04/25 09:50:58;;;;;;;24.88;14.23;;;8.50;99.90;;;;;;5066812;28;20036;-49
2022/04/25 09:53:55;;;;;;;21.80;14.27;;;8.60;99.90;;;;;;5067122;28;20463;-46
2022/04/25 09:56:22;;;;;;;21.88;14.95;;;8.50;99.90;;;;;;5065873;28;20045;-49
2022/04/25 09:59:09;;;;;;;21.63;13.98;;;8.60;99.90;;;;;;5064998;28;20103;-49
2022/04/25 10:01:37;;;;;;;26.17;15.52;;;8.50;99.90;;;;;;5066638;28;20040;-51
2022/04/25 10:04:05;;;;;;;25.52;16.25;;;8.70;99.90;;;;;;5066866;28;20036;-48
2022/04/25 10:06:32;;;;;;;25.60;15.95;;;8.80;99.90;;;;;;5063683;28;20048;-48
2022/04/25 10:09:01;;;;;;;23.83;15.25;;;8.80;99.90;;;;;;5064903;28;20041;-47
2022/04/25 10:11:34;;;;;;;22.83;15.07;;;8.80;99.90;;;;;;5067595;28;20060;-47
2022/04/25 10:14:01;;;;;;;24.38;15.50;;;8.90;99.90;;;;;;5068114;28;20111;-49
2022/04/25 10:16:28;;;;;;;23.08;15.30;;;8.90;99.90;;;;;;5066709;28;20051;-47
2022/04/25 10:18:54;;;;;;;23.98;15.10;;;8.90;99.90;;;;;;5067207;28;20043;-46
2022/04/25 10:21:25;;;;;;;25.05;16.17;;;9.10;99.90;;;;;;5066590;28;20047;-48
2022/04/25 10:23:52;;;;;;;24.85;14.90;;;9.10;99.90;;;;;;5048228;28;20114;-49
2022/04/25 10:26:24;;;;;;;23.92;15.43;;;9.10;99.90;;;;;;5066361;28;20068;-49
2022/04/25 10:29:10;;;;;;;25.35;16.17;;;9.10;99.90;;;;;;5064598;28;20503;-48
2022/04/25 10:31:44;;;;;;;25.58;15.43;;;9.20;99.90;;;;;;5066591;28;20032;-47
2022/04/25 10:34:14;;;;;;;25.27;14.98;;;9.20;99.90;;;;;;5065956;28;20032;-48
2022/04/25 10:36:39;;;;;;;22.25;15.13;;;9.30;99.90;;;;;;5064287;28;20139;-49
2022/04/25 10:39:23;;;;;;;22.30;14.68;;;9.40;99.90;;;;;;5066338;28;20139;-46
2022/04/25 10:44:45;;;;;;;19.23;13.55;;;9.50;99.90;;;;;;5065217;28;20127;-48
2022/04/25 10:47:16;;;;;;;17.52;12.68;;;9.60;99.90;;;;;;5066519;28;20503;-47
2022/04/25 10:49:44;;;;;;;17.88;13.57;;;9.70;99.90;;;;;;5066580;28;20043;-47
2022/04/25 10:52:31;;;;;;;19.17;13.15;;;9.90;99.90;;;;;;5066651;28;20043;-47
2022/04/25 10:55:21;;;;;;;19.13;13.20;;;10.10;99.90;;;;;;5064331;28;20127;-47
2022/04/25 10:58:02;;;;;;;19.70;12.88;;;10.50;99.90;;;;;;5064979;28;20119;-50
2022/04/25 11:00:37;;;;;;;18.65;12.10;;;10.20;99.90;;;;;;5064401;28;20111;-51
2022/04/25 11:03:04;;;;;;;17.10;11.60;;;10.30;99.90;;;;;;5067195;28;20025;-48
2022/04/25 11:05:37;;;;;;;15.52;10.95;;;10.30;99.90;;;;;;5066848;28;20035;-49
2022/04/25 11:08:18;;;;;;;15.82;10.82;;;10.20;99.90;;;;;;5064904;28;20043;-50
2022/04/25 11:10:46;;;;;;;15.05;10.95;;;10.10;99.90;;;;;;5063988;28;20057;-49
2022/04/25 11:13:13;;;;;;;17.80;10.45;;;10.10;99.90;;;;;;5063878;28;20490;-48
2022/04/25 11:15:46;;;;;;;13.95;9.15;;;9.90;99.90;;;;;;5062920;28;20094;-46
2022/04/25 11:18:38;;;;;;;16.08;9.68;;;10.00;99.90;;;;;;5065295;28;20032;-47
2022/04/25 11:21:09;;;;;;;19.60;9.70;;;9.70;99.90;;;;;;5064952;28;20044;-51
2022/04/25 11:23:59;;;;;;;14.75;9.98;;;9.70;99.90;;;;;;5064476;28;20492;-52
2022/04/25 11:26:24;;;;;;;17.05;9.88;;;9.60;99.90;;;;;;5065538;28;20048;-49
2022/04/25 11:29:11;;;;;;;18.35;10.98;;;9.50;99.90;;;;;;5068457;28;20043;-53
2022/04/25 11:31:39;;;;;;;19.13;11.10;;;9.70;99.90;;;;;;5066319;28;20119;-49
2022/04/25 11:34:07;;;;;;;17.40;11.18;;;9.80;99.90;;;;;;5065318;28;20120;-49
2022/04/25 11:36:40;;;;;;;19.23;10.02;;;10.00;99.90;;;;;;5063428;28;20033;-51
2022/04/25 11:41:52;;;;;;;16.40;9.90;;;10.50;99.90;;;;;;5062175;28;20067;-47
2022/04/25 11:44:18;;;;;;;17.00;10.30;;;10.60;99.90;;;;;;5048572;28;20123;-49
2022/04/25 11:46:45;;;;;;;13.70;9.57;;;10.60;99.90;;;;;;5066757;28;20028;-50
2022/04/25 11:49:11;;;;;;;13.20;9.57;;;10.90;99.90;;;;;;5064621;28;20048;-49
2022/04/25 11:51:37;;;;;;;15.32;9.05;;;10.80;99.90;;;;;;5064176;28;20036;-46
2022/04/25 11:54:08;;;;;;;14.50;9.10;;;10.90;99.90;;;;;;5062937;28;20101;-46
2022/04/25 11:56:36;;;;;;;15.23;8.52;;;11.10;99.90;;;;;;5064609;28;20142;-46
2022/04/25 11:59:12;;;;;;;15.18;8.65;;;11.10;99.90;;;;;;5064034;28;20086;-48
2022/04/25 12:01:47;;;;;;;13.90;8.75;;;10.90;99.90;;;;;;5064121;28;20141;-47
2022/04/25 12:04:28;;;;;;;14.70;9.13;;;11.10;99.90;;;;;;5064301;28;20527;-46
2022/04/25 12:07:05;;;;;;;14.60;8.95;;;11.10;99.90;;;;;;5065252;28;20036;-46
2022/04/25 12:18:16;;;;;;;13.07;7.55;;;11.30;99.90;;;;;;5070710;28;20137;-50
2022/04/25 12:20:45;;;;;;;12.90;8.13;;;11.40;99.90;;;;;;5071035;28;20028;-49
2022/04/25 12:23:21;;;;;;;11.25;7.63;;;11.70;99.90;;;;;;5071716;28;20044;-48
2022/04/25 12:25:47;;;;;;;12.88;7.63;;;12.00;99.90;;;;;;5073751;28;20084;-50
2022/04/25 12:28:13;;;;;;;12.52;7.80;;;12.10;99.90;;;;;;5073094;28;20044;-50
2022/04/25 12:30:56;;;;;;;15.45;7.95;;;12.30;99.90;;;;;;5073010;28;20501;-49
2022/04/25 12:33:33;;;;;;;10.85;8.00;;;12.20;99.90;;;;;;5056703;28;20052;-49
2022/04/25 12:36:24;;;;;;;12.68;7.22;;;12.10;99.90;;;;;;5074044;28;20032;-49
2022/04/25 12:38:50;;;;;;;14.00;7.20;;;12.10;99.90;;;;;;5093427;28;20054;-49
2022/04/25 12:41:39;;;;;;;10.07;7.30;;;12.20;99.90;;;;;;5076066;28;20116;-49
2022/04/25 12:44:11;;;;;;;13.27;7.93;;;12.50;99.90;;;;;;5094180;28;20028;-47
2022/04/25 12:46:49;;;;;;;12.40;7.28;;;12.60;99.90;;;;;;5076282;28;20479;-51
2022/04/25 12:49:16;;;;;;;10.68;7.25;;;12.60;99.90;;;;;;5094053;28;20494;-48
2022/04/25 12:51:44;;;;;;;11.18;7.35;;;12.80;99.90;;;;;;5094596;28;20467;-49
2022/04/25 12:54:20;;;;;;;12.48;7.13;;;13.00;99.90;;;;;;5093513;28;20093;-47
2022/04/25 12:56:47;;;;;;;12.15;8.23;;;13.00;99.90;;;;;;5093782;28;20040;-48
2022/04/25 12:59:29;;;;;;;10.60;8.13;;;13.10;99.90;;;;;;5093702;28;20040;-48
2022/04/25 13:02:09;;;;;;;12.75;7.65;;;13.10;99.90;;;;;;5093979;28;20042;-51
2022/04/25 13:04:56;;;;;;;12.60;8.20;;;12.90;99.90;;;;;;5094079;28;20113;-51
2022/04/25 13:07:28;;;;;;;12.18;7.93;;;12.80;99.90;;;;;;5093782;28;20042;-49
2022/04/25 13:09:56;;;;;;;10.48;7.38;;;12.80;99.90;;;;;;5093193;28;20115;-47
2022/04/25 13:12:43;;;;;;;12.18;7.97;;;12.90;99.90;;;;;;5093957;28;20048;-50
2022/04/25 13:15:12;;;;;;;10.27;7.15;;;13.00;99.90;;;;;;5092907;28;20097;-49
2022/04/25 13:17:39;;;;;;;11.50;7.55;;;13.00;99.90;;;;;;5093746;28;20542;-50
2022/04/25 13:20:10;;;;;;;11.50;7.28;;;13.10;99.90;;;;;;5093604;28;20036;-50
2022/04/25 13:22:36;;;;;;;11.80;7.50;;;13.10;99.90;;;;;;5093426;28;20035;-48